Terminal Aerodrome Forecast
Issued by NWS

Home | Current Version | Previous Version | Graphics & Text | Print | Product List | Glossary On
Versions: 1 2 3 4 5 6 7 8 9 10 11 12 13 14 15 16 17 18
917
FTUS43 KMPX 111739
TAFRWF
TAF
KRWF 111739Z 1118/1218 19006KT P6SM SCT025 OVC035
     FM111900 18007KT P6SM -SN OVC020
     FM120200 26005KT P6SM OVC015
     FM120700 32010KT P6SM OVC050
     FM121400 32015G23KT P6SM SKC=

USA.gov is the U.S. government's official web portal to all federal, state and local government web resources and services.